KGFL/GFL METAR and TAF weather

Enter ICAO airport designator
Station Type Date Time Source
KGFL METAR 2019/10/15 02:53 UTC NOAA

KGFL 150253Z AUTO A3006 RMK AO2 SLPNO 51027 PWINO FZRANO $


Station Type Date Time Source
KGFL Decoded METAR 2019/10/15 02:53 UTC NOAA

FLOYD BENNETT MEMORIAL AIRPORT , NY, United States (KGFL) 43-20N 073-37W 103M
Oct 14, 2019 - 10:53 PM EDT / 2019.10.15 0253 UTC
Pressure (altimeter): 30.06 in. Hg (1017 hPa)
Pressure tendency: 0.08 inches (2.7 hPa) higher than three hours ago
ob: KGFL 150253Z AUTO A3006 RMK AO2 SLPNO 51027 PWINO FZRANO
cycle: 3

Station Type Date Time Source
KGFL TAF 2019/10/14 20:58 UTC NOAA

TAF
AMD KGFL 141958Z 1420/1518 26008G16KT P6SM BKN080
FM150100 27003KT P6SM SCT040
FM151300 20005KT P6SM SCT035

Example: see airport list